sensor_id;sensor_type;location;lat;lon;timestamp;P1;durP1;ratioP1;P2;durP2;ratioP2
24801;SDS011;12898;50.520;12.152;2022-07-21T00:02:07;21.30;;;12.27;;
24801;SDS011;12898;50.520;12.152;2022-07-21T00:04:32;27.17;;;11.95;;
24801;SDS011;12898;50.520;12.152;2022-07-21T00:06:58;21.75;;;11.73;;
24801;SDS011;12898;50.520;12.152;2022-07-21T00:09:23;22.35;;;12.13;;
24801;SDS011;12898;50.520;12.152;2022-07-21T00:11:49;26.42;;;11.77;;
24801;SDS011;12898;50.520;12.152;2022-07-21T00:14:15;21.25;;;12.30;;
24801;SDS011;12898;50.520;12.152;2022-07-21T00:16:41;17.30;;;11.70;;
24801;SDS011;12898;50.520;12.152;2022-07-21T00:19:07;20.48;;;11.73;;
24801;SDS011;12898;50.520;12.152;2022-07-21T00:21:33;23.58;;;12.27;;
24801;SDS011;12898;50.520;12.152;2022-07-21T00:23:59;18.98;;;11.73;;
24801;SDS011;12898;50.520;12.152;2022-07-21T00:26:25;19.42;;;11.70;;
24801;SDS011;12898;50.520;12.152;2022-07-21T00:28:52;20.58;;;11.80;;
24801;SDS011;12898;50.520;12.152;2022-07-21T00:31:17;18.65;;;11.98;;
24801;SDS011;12898;50.520;12.152;2022-07-21T00:33:43;32.22;;;11.95;;
24801;SDS011;12898;50.520;12.152;2022-07-21T00:36:09;18.98;;;11.38;;
24801;SDS011;12898;50.520;12.152;2022-07-21T00:38:35;18.13;;;11.30;;
24801;SDS011;12898;50.520;12.152;2022-07-21T00:41:00;19.48;;;11.65;;
24801;SDS011;12898;50.520;12.152;2022-07-21T00:43:26;19.00;;;10.73;;
24801;SDS011;12898;50.520;12.152;2022-07-21T00:45:53;19.88;;;11.95;;
24801;SDS011;12898;50.520;12.152;2022-07-21T00:48:20;16.52;;;10.48;;
24801;SDS011;12898;50.520;12.152;2022-07-21T00:50:46;22.42;;;10.93;;
24801;SDS011;12898;50.520;12.152;2022-07-21T00:53:12;17.55;;;10.18;;
24801;SDS011;12898;50.520;12.152;2022-07-21T00:55:38;15.00;;;10.55;;
24801;SDS011;12898;50.520;12.152;2022-07-21T00:58:08;18.27;;;11.25;;
24801;SDS011;12898;50.520;12.152;2022-07-21T01:00:35;15.93;;;10.90;;
24801;SDS011;12898;50.520;12.152;2022-07-21T01:03:01;15.45;;;10.05;;
24801;SDS011;12898;50.520;12.152;2022-07-21T01:05:27;15.35;;;10.05;;
24801;SDS011;12898;50.520;12.152;2022-07-21T01:07:54;21.58;;;10.25;;
24801;SDS011;12898;50.520;12.152;2022-07-21T01:10:22;17.58;;;12.13;;
24801;SDS011;12898;50.520;12.152;2022-07-21T01:12:49;16.85;;;11.50;;
24801;SDS011;12898;50.520;12.152;2022-07-21T01:15:16;15.38;;;11.00;;
24801;SDS011;12898;50.520;12.152;2022-07-21T01:17:44;19.33;;;11.73;;
24801;SDS011;12898;50.520;12.152;2022-07-21T01:20:11;16.52;;;10.70;;
24801;SDS011;12898;50.520;12.152;2022-07-21T01:22:43;16.23;;;11.15;;
24801;SDS011;12898;50.520;12.152;2022-07-21T01:25:12;17.50;;;10.93;;
24801;SDS011;12898;50.520;12.152;2022-07-21T01:27:38;18.55;;;10.70;;
24801;SDS011;12898;50.520;12.152;2022-07-21T01:30:05;17.00;;;11.05;;
24801;SDS011;12898;50.520;12.152;2022-07-21T01:32:33;16.65;;;10.93;;
24801;SDS011;12898;50.520;12.152;2022-07-21T01:35:03;16.90;;;10.85;;
24801;SDS011;12898;50.520;12.152;2022-07-21T01:37:31;17.92;;;11.10;;
24801;SDS011;12898;50.520;12.152;2022-07-21T01:40:02;15.32;;;11.23;;
24801;SDS011;12898;50.520;12.152;2022-07-21T01:42:47;15.63;;;10.02;;
24801;SDS011;12898;50.520;12.152;2022-07-21T01:45:13;16.00;;;10.70;;
24801;SDS011;12898;50.520;12.152;2022-07-21T01:47:39;16.00;;;10.20;;
24801;SDS011;12898;50.520;12.152;2022-07-21T01:50:05;16.02;;;10.15;;
24801;SDS011;12898;50.520;12.152;2022-07-21T01:52:32;16.23;;;9.90;;
24801;SDS011;12898;50.520;12.152;2022-07-21T01:54:57;15.52;;;10.27;;
24801;SDS011;12898;50.520;12.152;2022-07-21T01:57:23;13.65;;;9.48;;
24801;SDS011;12898;50.520;12.152;2022-07-21T01:59:49;15.93;;;8.98;;
24801;SDS011;12898;50.520;12.152;2022-07-21T02:02:14;16.30;;;9.57;;
24801;SDS011;12898;50.520;12.152;2022-07-21T02:04:45;14.90;;;9.57;;
24801;SDS011;12898;50.520;12.152;2022-07-21T02:07:12;11.75;;;8.15;;
24801;SDS011;12898;50.520;12.152;2022-07-21T02:09:38;15.55;;;8.75;;
24801;SDS011;12898;50.520;12.152;2022-07-21T02:12:04;15.90;;;8.65;;
24801;SDS011;12898;50.520;12.152;2022-07-21T02:14:30;13.23;;;8.13;;
24801;SDS011;12898;50.520;12.152;2022-07-21T02:16:56;13.60;;;8.45;;
24801;SDS011;12898;50.520;12.152;2022-07-21T02:19:21;11.32;;;8.10;;
24801;SDS011;12898;50.520;12.152;2022-07-21T02:21:47;14.60;;;7.85;;
24801;SDS011;12898;50.520;12.152;2022-07-21T02:24:13;14.45;;;7.70;;
24801;SDS011;12898;50.520;12.152;2022-07-21T02:26:38;12.77;;;8.15;;
24801;SDS011;12898;50.520;12.152;2022-07-21T02:29:04;13.23;;;7.80;;
24801;SDS011;12898;50.520;12.152;2022-07-21T02:31:30;13.10;;;7.97;;
24801;SDS011;12898;50.520;12.152;2022-07-21T02:33:56;13.27;;;7.90;;
24801;SDS011;12898;50.520;12.152;2022-07-21T02:36:22;12.77;;;7.93;;
24801;SDS011;12898;50.520;12.152;2022-07-21T02:38:48;13.68;;;7.45;;
24801;SDS011;12898;50.520;12.152;2022-07-21T02:41:15;15.57;;;7.45;;
24801;SDS011;12898;50.520;12.152;2022-07-21T02:43:41;16.00;;;7.72;;
24801;SDS011;12898;50.520;12.152;2022-07-21T02:46:07;10.70;;;6.97;;
24801;SDS011;12898;50.520;12.152;2022-07-21T02:48:33;11.68;;;7.18;;
24801;SDS011;12898;50.520;12.152;2022-07-21T02:50:59;14.77;;;8.50;;
24801;SDS011;12898;50.520;12.152;2022-07-21T02:53:24;13.18;;;8.18;;
24801;SDS011;12898;50.520;12.152;2022-07-21T02:55:50;14.38;;;7.10;;
24801;SDS011;12898;50.520;12.152;2022-07-21T02:58:27;14.32;;;7.57;;
24801;SDS011;12898;50.520;12.152;2022-07-21T03:00:58;13.27;;;7.80;;
24801;SDS011;12898;50.520;12.152;2022-07-21T03:03:27;12.52;;;7.45;;
24801;SDS011;12898;50.520;12.152;2022-07-21T03:05:58;13.80;;;7.32;;
24801;SDS011;12898;50.520;12.152;2022-07-21T03:08:24;12.38;;;7.22;;
24801;SDS011;12898;50.520;12.152;2022-07-21T03:10:51;13.73;;;6.38;;
24801;SDS011;12898;50.520;12.152;2022-07-21T03:13:17;11.02;;;6.90;;
24801;SDS011;12898;50.520;12.152;2022-07-21T03:15:43;11.88;;;7.30;;
24801;SDS011;12898;50.520;12.152;2022-07-21T03:18:09;16.63;;;7.90;;
24801;SDS011;12898;50.520;12.152;2022-07-21T03:20:36;13.85;;;7.30;;
24801;SDS011;12898;50.520;12.152;2022-07-21T03:23:04;12.77;;;7.40;;
24801;SDS011;12898;50.520;12.152;2022-07-21T03:25:30;12.93;;;7.28;;
24801;SDS011;12898;50.520;12.152;2022-07-21T03:27:57;15.98;;;7.35;;
24801;SDS011;12898;50.520;12.152;2022-07-21T03:30:23;12.88;;;7.78;;
24801;SDS011;12898;50.520;12.152;2022-07-21T03:32:49;10.90;;;6.80;;
24801;SDS011;12898;50.520;12.152;2022-07-21T03:35:15;10.98;;;7.25;;
24801;SDS011;12898;50.520;12.152;2022-07-21T03:37:43;15.30;;;7.18;;
24801;SDS011;12898;50.520;12.152;2022-07-21T03:40:14;12.90;;;7.72;;
24801;SDS011;12898;50.520;12.152;2022-07-21T03:42:44;10.73;;;6.78;;
24801;SDS011;12898;50.520;12.152;2022-07-21T03:45:10;11.45;;;6.50;;
24801;SDS011;12898;50.520;12.152;2022-07-21T03:47:36;12.30;;;7.03;;
24801;SDS011;12898;50.520;12.152;2022-07-21T03:50:03;11.63;;;6.88;;
24801;SDS011;12898;50.520;12.152;2022-07-21T03:52:31;11.00;;;7.07;;
24801;SDS011;12898;50.520;12.152;2022-07-21T03:54:56;15.65;;;7.30;;
24801;SDS011;12898;50.520;12.152;2022-07-21T03:57:35;11.18;;;6.40;;
24801;SDS011;12898;50.520;12.152;2022-07-21T04:00:04;15.38;;;7.63;;
24801;SDS011;12898;50.520;12.152;2022-07-21T04:02:32;10.32;;;7.00;;
24801;SDS011;12898;50.520;12.152;2022-07-21T04:04:58;14.25;;;6.75;;
24801;SDS011;12898;50.520;12.152;2022-07-21T04:07:24;21.55;;;8.18;;
24801;SDS011;12898;50.520;12.152;2022-07-21T04:09:50;16.17;;;8.05;;
24801;SDS011;12898;50.520;12.152;2022-07-21T04:12:15;13.48;;;7.63;;
24801;SDS011;12898;50.520;12.152;2022-07-21T04:14:41;13.25;;;7.45;;
24801;SDS011;12898;50.520;12.152;2022-07-21T04:17:06;14.10;;;8.75;;
24801;SDS011;12898;50.520;12.152;2022-07-21T04:19:32;15.68;;;8.40;;
24801;SDS011;12898;50.520;12.152;2022-07-21T04:21:58;15.13;;;8.10;;
24801;SDS011;12898;50.520;12.152;2022-07-21T04:24:23;15.07;;;8.70;;
24801;SDS011;12898;50.520;12.152;2022-07-21T04:26:49;12.95;;;8.38;;
24801;SDS011;12898;50.520;12.152;2022-07-21T04:29:15;14.45;;;8.70;;
24801;SDS011;12898;50.520;12.152;2022-07-21T04:31:40;13.93;;;8.10;;
24801;SDS011;12898;50.520;12.152;2022-07-21T04:34:06;14.48;;;8.88;;
24801;SDS011;12898;50.520;12.152;2022-07-21T04:36:32;13.13;;;9.48;;
24801;SDS011;12898;50.520;12.152;2022-07-21T04:38:57;15.18;;;9.55;;
24801;SDS011;12898;50.520;12.152;2022-07-21T04:41:23;13.52;;;8.85;;
24801;SDS011;12898;50.520;12.152;2022-07-21T04:43:49;16.20;;;8.98;;
24801;SDS011;12898;50.520;12.152;2022-07-21T04:46:14;14.25;;;8.90;;
24801;SDS011;12898;50.520;12.152;2022-07-21T04:48:40;13.82;;;9.00;;
24801;SDS011;12898;50.520;12.152;2022-07-21T04:51:06;14.45;;;8.90;;
24801;SDS011;12898;50.520;12.152;2022-07-21T04:53:32;13.45;;;8.52;;
24801;SDS011;12898;50.520;12.152;2022-07-21T04:55:57;14.23;;;9.25;;
24801;SDS011;12898;50.520;12.152;2022-07-21T04:58:23;14.02;;;9.50;;
24801;SDS011;12898;50.520;12.152;2022-07-21T05:00:49;15.48;;;10.88;;
24801;SDS011;12898;50.520;12.152;2022-07-21T05:03:14;14.02;;;9.95;;
24801;SDS011;12898;50.520;12.152;2022-07-21T05:05:40;16.38;;;10.13;;
24801;SDS011;12898;50.520;12.152;2022-07-21T05:08:06;15.75;;;9.65;;
24801;SDS011;12898;50.520;12.152;2022-07-21T05:10:32;15.50;;;9.02;;
24801;SDS011;12898;50.520;12.152;2022-07-21T05:12:57;11.63;;;8.10;;
24801;SDS011;12898;50.520;12.152;2022-07-21T05:15:23;14.32;;;8.85;;
24801;SDS011;12898;50.520;12.152;2022-07-21T05:17:49;16.65;;;8.73;;
24801;SDS011;12898;50.520;12.152;2022-07-21T05:20:15;18.15;;;8.05;;
24801;SDS011;12898;50.520;12.152;2022-07-21T05:22:40;13.38;;;8.05;;
24801;SDS011;12898;50.520;12.152;2022-07-21T05:25:06;11.73;;;8.32;;
24801;SDS011;12898;50.520;12.152;2022-07-21T05:27:33;13.00;;;7.88;;
24801;SDS011;12898;50.520;12.152;2022-07-21T05:29:59;13.82;;;8.15;;
24801;SDS011;12898;50.520;12.152;2022-07-21T05:32:25;13.38;;;7.78;;
24801;SDS011;12898;50.520;12.152;2022-07-21T05:34:50;13.25;;;7.82;;
24801;SDS011;12898;50.520;12.152;2022-07-21T05:37:16;12.02;;;7.90;;
24801;SDS011;12898;50.520;12.152;2022-07-21T05:39:42;16.02;;;8.10;;
24801;SDS011;12898;50.520;12.152;2022-07-21T05:42:08;17.13;;;8.25;;
24801;SDS011;12898;50.520;12.152;2022-07-21T05:44:33;14.30;;;7.50;;
24801;SDS011;12898;50.520;12.152;2022-07-21T05:46:59;13.35;;;8.02;;
24801;SDS011;12898;50.520;12.152;2022-07-21T05:49:25;13.27;;;8.15;;
24801;SDS011;12898;50.520;12.152;2022-07-21T05:51:50;12.35;;;7.97;;
24801;SDS011;12898;50.520;12.152;2022-07-21T05:54:16;13.20;;;7.55;;
24801;SDS011;12898;50.520;12.152;2022-07-21T05:56:42;16.58;;;8.13;;
24801;SDS011;12898;50.520;12.152;2022-07-21T05:59:07;12.80;;;7.90;;
24801;SDS011;12898;50.520;12.152;2022-07-21T06:01:33;10.25;;;7.60;;
24801;SDS011;12898;50.520;12.152;2022-07-21T06:03:59;14.07;;;7.95;;
24801;SDS011;12898;50.520;12.152;2022-07-21T06:06:25;12.93;;;7.55;;
24801;SDS011;12898;50.520;12.152;2022-07-21T06:08:50;14.25;;;8.18;;
24801;SDS011;12898;50.520;12.152;2022-07-21T06:11:17;12.75;;;7.55;;
24801;SDS011;12898;50.520;12.152;2022-07-21T06:13:45;12.70;;;7.93;;
24801;SDS011;12898;50.520;12.152;2022-07-21T06:16:12;13.35;;;7.30;;
24801;SDS011;12898;50.520;12.152;2022-07-21T06:18:38;11.50;;;8.07;;
24801;SDS011;12898;50.520;12.152;2022-07-21T06:21:04;12.10;;;7.75;;
24801;SDS011;12898;50.520;12.152;2022-07-21T06:23:30;13.43;;;8.02;;
24801;SDS011;12898;50.520;12.152;2022-07-21T06:25:56;10.25;;;7.13;;
24801;SDS011;12898;50.520;12.152;2022-07-21T06:28:22;10.45;;;6.80;;
24801;SDS011;12898;50.520;12.152;2022-07-21T06:30:48;44.75;;;9.40;;
24801;SDS011;12898;50.520;12.152;2022-07-21T06:33:15;12.07;;;6.25;;
24801;SDS011;12898;50.520;12.152;2022-07-21T06:35:41;9.88;;;5.80;;
24801;SDS011;12898;50.520;12.152;2022-07-21T06:38:07;8.18;;;5.30;;
24801;SDS011;12898;50.520;12.152;2022-07-21T06:40:33;12.93;;;5.20;;
24801;SDS011;12898;50.520;12.152;2022-07-21T06:42:59;8.35;;;4.78;;
24801;SDS011;12898;50.520;12.152;2022-07-21T06:45:24;10.43;;;5.10;;
24801;SDS011;12898;50.520;12.152;2022-07-21T06:47:50;7.22;;;5.28;;
24801;SDS011;12898;50.520;12.152;2022-07-21T06:50:29;10.82;;;5.32;;
24801;SDS011;12898;50.520;12.152;2022-07-21T06:52:55;8.38;;;5.18;;
24801;SDS011;12898;50.520;12.152;2022-07-21T06:55:20;8.90;;;5.32;;
24801;SDS011;12898;50.520;12.152;2022-07-21T06:57:46;8.70;;;5.30;;
24801;SDS011;12898;50.520;12.152;2022-07-21T07:00:12;9.88;;;4.80;;
24801;SDS011;12898;50.520;12.152;2022-07-21T07:02:38;9.43;;;5.30;;
24801;SDS011;12898;50.520;12.152;2022-07-21T07:05:04;8.00;;;5.47;;
24801;SDS011;12898;50.520;12.152;2022-07-21T07:07:30;8.38;;;5.13;;
24801;SDS011;12898;50.520;12.152;2022-07-21T07:09:56;9.48;;;5.72;;
24801;SDS011;12898;50.520;12.152;2022-07-21T07:12:24;8.57;;;4.68;;
24801;SDS011;12898;50.520;12.152;2022-07-21T07:14:50;9.98;;;5.38;;
24801;SDS011;12898;50.520;12.152;2022-07-21T07:17:16;8.75;;;5.47;;
24801;SDS011;12898;50.520;12.152;2022-07-21T07:19:46;8.30;;;5.35;;
24801;SDS011;12898;50.520;12.152;2022-07-21T07:22:13;10.30;;;5.13;;
24801;SDS011;12898;50.520;12.152;2022-07-21T07:24:39;10.45;;;5.15;;
24801;SDS011;12898;50.520;12.152;2022-07-21T07:27:05;10.13;;;5.55;;
24801;SDS011;12898;50.520;12.152;2022-07-21T07:29:31;8.70;;;5.65;;
24801;SDS011;12898;50.520;12.152;2022-07-21T07:31:57;8.80;;;5.35;;
24801;SDS011;12898;50.520;12.152;2022-07-21T07:34:23;8.48;;;5.18;;
24801;SDS011;12898;50.520;12.152;2022-07-21T07:36:49;10.70;;;5.65;;
24801;SDS011;12898;50.520;12.152;2022-07-21T07:39:15;10.35;;;6.05;;
24801;SDS011;12898;50.520;12.152;2022-07-21T07:41:41;9.57;;;6.07;;
24801;SDS011;12898;50.520;12.152;2022-07-21T07:44:08;11.23;;;6.38;;
24801;SDS011;12898;50.520;12.152;2022-07-21T07:46:34;9.52;;;6.40;;
24801;SDS011;12898;50.520;12.152;2022-07-21T07:49:00;8.98;;;5.88;;
24801;SDS011;12898;50.520;12.152;2022-07-21T07:51:27;9.82;;;6.30;;
24801;SDS011;12898;50.520;12.152;2022-07-21T07:53:53;10.70;;;6.90;;
24801;SDS011;12898;50.520;12.152;2022-07-21T07:56:18;9.32;;;6.45;;
24801;SDS011;12898;50.520;12.152;2022-07-21T07:58:44;13.23;;;6.43;;
24801;SDS011;12898;50.520;12.152;2022-07-21T08:01:10;13.27;;;6.75;;
24801;SDS011;12898;50.520;12.152;2022-07-21T08:03:36;11.32;;;6.97;;
24801;SDS011;12898;50.520;12.152;2022-07-21T08:06:01;13.98;;;7.40;;
24801;SDS011;12898;50.520;12.152;2022-07-21T08:08:31;13.55;;;7.07;;
24801;SDS011;12898;50.520;12.152;2022-07-21T08:10:58;13.30;;;7.68;;
24801;SDS011;12898;50.520;12.152;2022-07-21T08:13:24;11.82;;;8.10;;
24801;SDS011;12898;50.520;12.152;2022-07-21T08:15:50;12.40;;;7.45;;
24801;SDS011;12898;50.520;12.152;2022-07-21T08:18:16;10.93;;;8.20;;
24801;SDS011;12898;50.520;12.152;2022-07-21T08:20:43;12.07;;;8.52;;
24801;SDS011;12898;50.520;12.152;2022-07-21T08:23:10;11.70;;;8.45;;
24801;SDS011;12898;50.520;12.152;2022-07-21T08:25:36;12.05;;;8.13;;
24801;SDS011;12898;50.520;12.152;2022-07-21T08:28:02;11.90;;;8.48;;
24801;SDS011;12898;50.520;12.152;2022-07-21T08:30:29;16.40;;;8.95;;
24801;SDS011;12898;50.520;12.152;2022-07-21T08:32:55;11.95;;;8.90;;
24801;SDS011;12898;50.520;12.152;2022-07-21T08:35:22;13.05;;;8.55;;
24801;SDS011;12898;50.520;12.152;2022-07-21T08:37:59;13.27;;;9.27;;
24801;SDS011;12898;50.520;12.152;2022-07-21T08:40:30;14.23;;;8.60;;
24801;SDS011;12898;50.520;12.152;2022-07-21T08:43:09;13.23;;;9.07;;
24801;SDS011;12898;50.520;12.152;2022-07-21T08:45:38;15.07;;;9.23;;
24801;SDS011;12898;50.520;12.152;2022-07-21T08:48:05;18.25;;;9.75;;
24801;SDS011;12898;50.520;12.152;2022-07-21T08:50:33;12.77;;;9.00;;
24801;SDS011;12898;50.520;12.152;2022-07-21T08:53:02;13.63;;;9.60;;
24801;SDS011;12898;50.520;12.152;2022-07-21T08:55:28;11.75;;;9.48;;
24801;SDS011;12898;50.520;12.152;2022-07-21T08:57:58;12.55;;;9.10;;
24801;SDS011;12898;50.520;12.152;2022-07-21T09:00:25;17.35;;;9.45;;
24801;SDS011;12898;50.520;12.152;2022-07-21T09:03:07;12.43;;;9.18;;
24801;SDS011;12898;50.520;12.152;2022-07-21T09:05:33;13.45;;;8.73;;
24801;SDS011;12898;50.520;12.152;2022-07-21T09:07:59;13.60;;;9.50;;
24801;SDS011;12898;50.520;12.152;2022-07-21T09:10:26;13.02;;;9.48;;
24801;SDS011;12898;50.520;12.152;2022-07-21T09:12:55;12.82;;;10.00;;
24801;SDS011;12898;50.520;12.152;2022-07-21T09:15:24;13.63;;;9.05;;
24801;SDS011;12898;50.520;12.152;2022-07-21T09:20:48;16.17;;;10.60;;
24801;SDS011;12898;50.520;12.152;2022-07-21T09:23:17;14.52;;;9.73;;
24801;SDS011;12898;50.520;12.152;2022-07-21T09:25:46;14.20;;;10.13;;
24801;SDS011;12898;50.520;12.152;2022-07-21T09:28:21;13.48;;;10.57;;
24801;SDS011;12898;50.520;12.152;2022-07-21T09:30:56;17.40;;;10.50;;
24801;SDS011;12898;50.520;12.152;2022-07-21T09:33:27;14.93;;;10.00;;
24801;SDS011;12898;50.520;12.152;2022-07-21T09:38:36;16.05;;;10.55;;
24801;SDS011;12898;50.520;12.152;2022-07-21T09:41:13;12.82;;;9.50;;
24801;SDS011;12898;50.520;12.152;2022-07-21T09:43:48;15.15;;;9.55;;
24801;SDS011;12898;50.520;12.152;2022-07-21T09:48:56;13.80;;;9.32;;
24801;SDS011;12898;50.520;12.152;2022-07-21T09:56:39;12.85;;;8.82;;
24801;SDS011;12898;50.520;12.152;2022-07-21T09:59:09;13.73;;;9.30;;
24801;SDS011;12898;50.520;12.152;2022-07-21T10:01:37;13.68;;;8.93;;
24801;SDS011;12898;50.520;12.152;2022-07-21T10:04:03;14.05;;;9.18;;
24801;SDS011;12898;50.520;12.152;2022-07-21T10:06:35;12.93;;;9.20;;
24801;SDS011;12898;50.520;12.152;2022-07-21T10:09:03;14.48;;;8.55;;
24801;SDS011;12898;50.520;12.152;2022-07-21T10:11:32;12.65;;;8.35;;
24801;SDS011;12898;50.520;12.152;2022-07-21T10:13:58;11.25;;;8.85;;
24801;SDS011;12898;50.520;12.152;2022-07-21T10:16:24;14.18;;;9.63;;
24801;SDS011;12898;50.520;12.152;2022-07-21T10:19:10;14.15;;;10.20;;
24801;SDS011;12898;50.520;12.152;2022-07-21T10:24:47;13.65;;;10.05;;
24801;SDS011;12898;50.520;12.152;2022-07-21T10:27:14;12.52;;;10.25;;
24801;SDS011;12898;50.520;12.152;2022-07-21T10:29:53;13.95;;;10.20;;
24801;SDS011;12898;50.520;12.152;2022-07-21T10:32:28;14.73;;;10.25;;
24801;SDS011;12898;50.520;12.152;2022-07-21T10:34:58;12.23;;;10.13;;
24801;SDS011;12898;50.520;12.152;2022-07-21T10:40:06;14.90;;;10.65;;
24801;SDS011;12898;50.520;12.152;2022-07-21T10:45:30;13.93;;;10.15;;
24801;SDS011;12898;50.520;12.152;2022-07-21T10:48:02;13.75;;;10.35;;
24801;SDS011;12898;50.520;12.152;2022-07-21T10:50:30;15.02;;;10.45;;
24801;SDS011;12898;50.520;12.152;2022-07-21T10:53:13;14.63;;;10.38;;
24801;SDS011;12898;50.520;12.152;2022-07-21T10:55:51;12.57;;;10.48;;
24801;SDS011;12898;50.520;12.152;2022-07-21T11:00:56;14.45;;;10.80;;
24801;SDS011;12898;50.520;12.152;2022-07-21T11:03:29;14.05;;;10.45;;
24801;SDS011;12898;50.520;12.152;2022-07-21T11:08:34;17.88;;;10.77;;
24801;SDS011;12898;50.520;12.152;2022-07-21T11:21:59;14.88;;;11.02;;
24801;SDS011;12898;50.520;12.152;2022-07-21T11:24:30;17.48;;;10.85;;
24801;SDS011;12898;50.520;12.152;2022-07-21T11:26:58;16.58;;;11.18;;
24801;SDS011;12898;50.520;12.152;2022-07-21T11:29:27;14.50;;;11.32;;
24801;SDS011;12898;50.520;12.152;2022-07-21T11:31:54;16.27;;;11.07;;
24801;SDS011;12898;50.520;12.152;2022-07-21T11:34:21;15.43;;;11.27;;
24801;SDS011;12898;50.520;12.152;2022-07-21T11:36:57;17.92;;;12.07;;
24801;SDS011;12898;50.520;12.152;2022-07-21T11:39:25;15.20;;;11.75;;
24801;SDS011;12898;50.520;12.152;2022-07-21T11:41:50;15.38;;;11.30;;
24801;SDS011;12898;50.520;12.152;2022-07-21T11:44:22;14.93;;;11.13;;
24801;SDS011;12898;50.520;12.152;2022-07-21T11:46:52;16.08;;;11.45;;
24801;SDS011;12898;50.520;12.152;2022-07-21T11:49:26;17.65;;;11.63;;
24801;SDS011;12898;50.520;12.152;2022-07-21T11:51:57;15.98;;;11.30;;
24801;SDS011;12898;50.520;12.152;2022-07-21T11:54:26;15.77;;;11.13;;
24801;SDS011;12898;50.520;12.152;2022-07-21T11:57:00;16.17;;;11.77;;
24801;SDS011;12898;50.520;12.152;2022-07-21T11:59:31;16.38;;;10.32;;
24801;SDS011;12898;50.520;12.152;2022-07-21T12:02:02;16.33;;;12.40;;
24801;SDS011;12898;50.520;12.152;2022-07-21T12:07:41;14.55;;;11.45;;
24801;SDS011;12898;50.520;12.152;2022-07-21T12:10:14;14.88;;;10.90;;
24801;SDS011;12898;50.520;12.152;2022-07-21T12:12:48;13.15;;;9.90;;
24801;SDS011;12898;50.520;12.152;2022-07-21T12:15:16;16.60;;;11.32;;
24801;SDS011;12898;50.520;12.152;2022-07-21T12:17:56;14.73;;;10.05;;
24801;SDS011;12898;50.520;12.152;2022-07-21T12:20:36;16.08;;;11.27;;
24801;SDS011;12898;50.520;12.152;2022-07-21T12:26:00;11.48;;;8.55;;
24801;SDS011;12898;50.520;12.152;2022-07-21T12:28:45;10.65;;;7.55;;
24801;SDS011;12898;50.520;12.152;2022-07-21T12:31:21;11.43;;;7.13;;
24801;SDS011;12898;50.520;12.152;2022-07-21T12:33:54;17.60;;;7.75;;
24801;SDS011;12898;50.520;12.152;2022-07-21T12:36:22;11.23;;;7.30;;
24801;SDS011;12898;50.520;12.152;2022-07-21T12:38:49;10.52;;;7.80;;
24801;SDS011;12898;50.520;12.152;2022-07-21T12:41:17;11.63;;;7.45;;
24801;SDS011;12898;50.520;12.152;2022-07-21T12:43:56;10.60;;;6.90;;
24801;SDS011;12898;50.520;12.152;2022-07-21T12:46:33;10.27;;;6.30;;
24801;SDS011;12898;50.520;12.152;2022-07-21T12:49:04;10.05;;;6.57;;
24801;SDS011;12898;50.520;12.152;2022-07-21T12:51:32;10.25;;;6.03;;
24801;SDS011;12898;50.520;12.152;2022-07-21T12:53:58;10.63;;;6.53;;
24801;SDS011;12898;50.520;12.152;2022-07-21T12:56:25;9.13;;;6.45;;
24801;SDS011;12898;50.520;12.152;2022-07-21T12:58:56;12.50;;;6.72;;
24801;SDS011;12898;50.520;12.152;2022-07-21T13:01:24;10.90;;;6.07;;
24801;SDS011;12898;50.520;12.152;2022-07-21T13:03:53;8.90;;;5.43;;
24801;SDS011;12898;50.520;12.152;2022-07-21T13:06:19;7.93;;;4.97;;
24801;SDS011;12898;50.520;12.152;2022-07-21T13:08:46;6.68;;;4.85;;
24801;SDS011;12898;50.520;12.152;2022-07-21T13:11:13;6.45;;;4.57;;
24801;SDS011;12898;50.520;12.152;2022-07-21T13:13:44;9.63;;;4.55;;
24801;SDS011;12898;50.520;12.152;2022-07-21T13:16:11;8.93;;;4.70;;
24801;SDS011;12898;50.520;12.152;2022-07-21T13:18:37;7.43;;;4.43;;
24801;SDS011;12898;50.520;12.152;2022-07-21T13:21:03;10.88;;;4.78;;
24801;SDS011;12898;50.520;12.152;2022-07-21T13:23:29;6.60;;;4.95;;
24801;SDS011;12898;50.520;12.152;2022-07-21T13:25:56;6.45;;;4.63;;
24801;SDS011;12898;50.520;12.152;2022-07-21T13:28:21;7.18;;;5.18;;
24801;SDS011;12898;50.520;12.152;2022-07-21T13:30:47;7.35;;;5.00;;
24801;SDS011;12898;50.520;12.152;2022-07-21T13:33:14;7.15;;;4.90;;
24801;SDS011;12898;50.520;12.152;2022-07-21T13:35:40;7.15;;;5.07;;
24801;SDS011;12898;50.520;12.152;2022-07-21T13:38:06;8.77;;;4.95;;
24801;SDS011;12898;50.520;12.152;2022-07-21T13:40:32;8.93;;;5.35;;
24801;SDS011;12898;50.520;12.152;2022-07-21T13:42:58;7.88;;;5.00;;
24801;SDS011;12898;50.520;12.152;2022-07-21T13:45:25;13.27;;;5.18;;
24801;SDS011;12898;50.520;12.152;2022-07-21T13:47:51;8.98;;;5.38;;
24801;SDS011;12898;50.520;12.152;2022-07-21T13:50:16;7.70;;;5.60;;
24801;SDS011;12898;50.520;12.152;2022-07-21T13:52:42;8.50;;;5.22;;
24801;SDS011;12898;50.520;12.152;2022-07-21T13:55:08;5.30;;;4.45;;
24801;SDS011;12898;50.520;12.152;2022-07-21T13:57:37;6.75;;;4.70;;
24801;SDS011;12898;50.520;12.152;2022-07-21T14:00:04;10.57;;;5.03;;
24801;SDS011;12898;50.520;12.152;2022-07-21T14:02:33;6.78;;;4.65;;
24801;SDS011;12898;50.520;12.152;2022-07-21T14:04:59;7.50;;;4.63;;
24801;SDS011;12898;50.520;12.152;2022-07-21T14:07:24;9.55;;;5.30;;
24801;SDS011;12898;50.520;12.152;2022-07-21T14:09:50;14.02;;;5.25;;
24801;SDS011;12898;50.520;12.152;2022-07-21T14:12:16;6.97;;;4.65;;
24801;SDS011;12898;50.520;12.152;2022-07-21T14:14:44;9.65;;;4.82;;
24801;SDS011;12898;50.520;12.152;2022-07-21T14:17:12;7.35;;;4.15;;
24801;SDS011;12898;50.520;12.152;2022-07-21T14:19:45;4.75;;;3.75;;
24801;SDS011;12898;50.520;12.152;2022-07-21T14:22:13;6.75;;;4.10;;
24801;SDS011;12898;50.520;12.152;2022-07-21T14:24:42;7.22;;;4.28;;
24801;SDS011;12898;50.520;12.152;2022-07-21T14:27:26;6.93;;;4.50;;
24801;SDS011;12898;50.520;12.152;2022-07-21T14:29:52;7.72;;;4.55;;
24801;SDS011;12898;50.520;12.152;2022-07-21T14:32:18;6.53;;;4.35;;
24801;SDS011;12898;50.520;12.152;2022-07-21T14:34:48;7.50;;;3.90;;
24801;SDS011;12898;50.520;12.152;2022-07-21T14:37:16;8.52;;;4.10;;
24801;SDS011;12898;50.520;12.152;2022-07-21T14:39:44;6.50;;;3.63;;
24801;SDS011;12898;50.520;12.152;2022-07-21T14:42:14;8.00;;;4.20;;
24801;SDS011;12898;50.520;12.152;2022-07-21T14:44:40;6.78;;;3.90;;
24801;SDS011;12898;50.520;12.152;2022-07-21T14:47:06;8.38;;;3.60;;
24801;SDS011;12898;50.520;12.152;2022-07-21T14:49:36;8.68;;;4.40;;
24801;SDS011;12898;50.520;12.152;2022-07-21T14:52:02;5.50;;;4.13;;
24801;SDS011;12898;50.520;12.152;2022-07-21T14:54:29;7.10;;;3.80;;
24801;SDS011;12898;50.520;12.152;2022-07-21T14:56:56;5.60;;;4.10;;
24801;SDS011;12898;50.520;12.152;2022-07-21T14:59:22;8.50;;;3.88;;
24801;SDS011;12898;50.520;12.152;2022-07-21T15:01:48;6.10;;;4.03;;
24801;SDS011;12898;50.520;12.152;2022-07-21T15:04:13;5.28;;;3.72;;
24801;SDS011;12898;50.520;12.152;2022-07-21T15:06:39;6.45;;;3.80;;
24801;SDS011;12898;50.520;12.152;2022-07-21T15:09:10;7.25;;;4.13;;